createdAt,value
2018-04-02T00:00:28.754Z,66.50
2018-04-02T00:02:56.522Z,64.30
2018-04-02T00:05:24.118Z,64.50
2018-04-02T00:07:51.687Z,66.70
2018-04-02T00:10:19.273Z,69.50
2018-04-02T00:12:47.606Z,65.30
2018-04-02T00:15:15.197Z,65.30
2018-04-02T00:17:42.814Z,64.80
2018-04-02T00:20:10.391Z,66.30
2018-04-02T00:22:37.990Z,64.80
2018-04-02T00:25:05.557Z,65.60
2018-04-02T00:27:33.926Z,65.70
2018-04-02T00:30:02.254Z,64.40
2018-04-02T00:32:29.858Z,64.40
2018-04-02T00:34:58.199Z,66.80
2018-04-02T00:37:25.800Z,66.80
2018-04-02T00:39:53.375Z,67.40
2018-04-02T00:42:20.961Z,66.30
2018-04-02T00:44:48.525Z,68.40
2018-04-02T00:47:16.109Z,66.80
2018-04-02T00:49:43.677Z,66.10
2018-04-02T00:52:11.273Z,66.30
2018-04-02T00:54:38.837Z,65.70
2018-04-02T00:57:06.430Z,67.20
2018-04-02T00:59:34.006Z,66.80
2018-04-02T01:02:01.594Z,67.10
2018-04-02T01:04:29.934Z,66.80
2018-04-02T01:06:57.525Z,66.70
2018-04-02T01:09:25.870Z,66.90
2018-04-02T01:11:53.470Z,67.00
2018-04-02T01:14:21.045Z,67.20
2018-04-02T01:16:48.639Z,69.40
2018-04-02T01:19:16.229Z,66.00
2018-04-02T01:21:43.830Z,66.20
2018-04-02T01:24:11.400Z,64.00
2018-04-02T01:26:38.986Z,65.50
2018-04-02T01:29:06.570Z,64.10
2018-04-02T01:31:34.916Z,64.90
2018-04-02T01:34:02.515Z,64.80
2018-04-02T01:36:30.089Z,63.60
2018-04-02T01:38:57.689Z,63.10
2018-04-02T01:41:25.265Z,66.70
2018-04-02T01:43:53.686Z,65.10
2018-04-02T01:46:21.253Z,65.00
2018-04-02T01:48:48.842Z,66.00
2018-04-02T01:51:16.415Z,65.00
2018-04-02T01:53:43.997Z,67.60
2018-04-02T01:56:11.565Z,64.30
2018-04-02T01:58:39.919Z,65.30
2018-04-02T02:01:07.482Z,65.00
2018-04-02T02:03:35.071Z,65.20
2018-04-02T02:06:02.646Z,64.50
2018-04-02T02:08:30.248Z,64.40
2018-04-02T02:10:57.823Z,68.10
2018-04-02T02:13:25.422Z,66.50
2018-04-02T02:15:52.993Z,69.50
2018-04-02T02:18:20.606Z,67.10
2018-04-02T02:20:48.177Z,65.80
2018-04-02T02:23:15.767Z,65.60
2018-04-02T02:25:43.330Z,65.00
2018-04-02T02:28:10.918Z,63.60
2018-04-02T02:30:38.504Z,65.60
2018-04-02T02:33:06.875Z,65.00
2018-04-02T02:35:34.441Z,65.00
2018-04-02T02:38:02.018Z,63.70
2018-04-02T02:40:29.662Z,64.80
2018-04-02T02:42:57.230Z,62.70
2018-04-02T02:45:24.842Z,64.30
2018-04-02T02:47:52.405Z,64.10
2018-04-02T02:50:20.007Z,63.90
2018-04-02T02:52:47.582Z,63.80
2018-04-02T02:55:15.173Z,64.60
2018-04-02T02:57:42.752Z,62.80
2018-04-02T03:00:10.344Z,62.30
2018-04-02T03:02:38.684Z,63.60
2018-04-02T03:05:06.345Z,63.40
2018-04-02T03:07:33.874Z,63.90
2018-04-02T03:10:01.472Z,62.40
2018-04-02T03:12:29.033Z,62.70
2018-04-02T03:14:56.623Z,64.60
2018-04-02T03:17:24.189Z,65.80
2018-04-02T03:19:51.778Z,63.90
2018-04-02T03:22:19.351Z,65.90
2018-04-02T03:24:46.950Z,64.20
2018-04-02T03:27:14.514Z,65.10
2018-04-02T03:29:42.878Z,66.50
2018-04-02T03:32:11.211Z,64.80
2018-04-02T03:34:38.805Z,64.90
2018-04-02T03:37:06.374Z,63.90
2018-04-02T03:39:33.975Z,63.50
2018-04-02T03:42:01.538Z,62.90
2018-04-02T03:44:29.124Z,61.00
2018-04-02T03:46:56.694Z,62.80
2018-04-02T03:49:24.282Z,63.00
2018-04-02T03:51:52.618Z,65.50
2018-04-02T03:54:20.981Z,65.20
2018-04-02T03:56:48.549Z,65.30
2018-04-02T03:59:16.110Z,62.70
2018-04-02T04:01:43.706Z,64.00
2018-04-02T04:04:12.050Z,62.80
2018-04-02T04:06:39.642Z,62.80
2018-04-02T04:09:07.974Z,64.70
2018-04-02T04:11:35.578Z,64.60
2018-04-02T04:14:03.909Z,63.00
2018-04-02T04:16:31.497Z,62.90
2018-04-02T04:18:59.065Z,62.70
2018-04-02T04:21:27.433Z,63.70
2018-04-02T04:23:55.005Z,63.60
2018-04-02T04:26:22.597Z,60.90
2018-04-02T04:28:50.171Z,63.60
2018-04-02T04:31:17.766Z,63.10
2018-04-02T04:33:45.329Z,63.00
2018-04-02T04:36:12.925Z,63.40
2018-04-02T04:38:40.494Z,64.90
2018-04-02T04:41:08.085Z,64.00
2018-04-02T04:43:35.661Z,63.70
2018-04-02T04:46:03.305Z,65.50
2018-04-02T04:48:30.852Z,64.00
2018-04-02T04:50:58.442Z,62.50
2018-04-02T04:53:26.017Z,64.10
2018-04-02T04:55:54.370Z,64.40
2018-04-02T04:58:21.968Z,64.40
2018-04-02T05:00:50.321Z,64.10
2018-04-02T05:03:17.890Z,64.10
2018-04-02T05:05:46.246Z,67.50
2018-04-02T05:08:13.821Z,67.40
2018-04-02T05:10:41.425Z,63.80
2018-04-02T05:13:08.986Z,60.50
2018-04-02T05:15:36.573Z,61.80
2018-04-02T05:18:04.137Z,64.50
2018-04-02T05:20:31.720Z,64.40
2018-04-02T05:22:59.315Z,65.10
2018-04-02T05:25:26.957Z,68.20
2018-04-02T05:27:54.541Z,65.90
2018-04-02T05:30:22.145Z,65.40
2018-04-02T05:32:49.762Z,65.60
2018-04-02T05:35:17.339Z,68.40
2018-04-02T05:37:44.921Z,67.40
2018-04-02T05:40:12.486Z,67.60
2018-04-02T05:42:40.849Z,65.90
2018-04-02T05:45:08.427Z,65.40
2018-04-02T05:47:36.023Z,66.30
2018-04-02T05:50:03.587Z,66.20
2018-04-02T05:52:31.185Z,65.20
2018-04-02T05:54:58.748Z,66.80
2018-04-02T05:57:26.340Z,65.10
2018-04-02T05:59:54.681Z,65.50
2018-04-02T06:02:22.265Z,65.40
2018-04-02T06:04:49.836Z,68.30
2018-04-02T06:07:18.185Z,66.20
2018-04-02T06:09:45.754Z,66.10
2018-04-02T06:12:13.345Z,65.80
2018-04-02T06:14:40.905Z,66.10
2018-04-02T06:17:08.494Z,68.60
2018-04-02T06:19:36.053Z,70.40
2018-04-02T06:22:03.646Z,68.40
2018-04-02T06:24:31.224Z,72.30
2018-04-02T06:26:59.561Z,70.50
2018-04-02T06:29:27.156Z,70.60
2018-04-02T06:31:55.494Z,68.00
2018-04-02T06:34:23.090Z,68.00
2018-04-02T06:36:51.417Z,65.30
2018-04-02T06:39:19.010Z,65.30
2018-04-02T06:41:46.589Z,64.80
2018-04-02T06:44:14.952Z,62.00
2018-04-02T06:46:43.288Z,60.80
2018-04-02T06:49:10.894Z,60.80
2018-04-02T06:51:38.470Z,59.60
2018-04-02T06:54:06.078Z,59.30
2018-04-02T06:56:33.693Z,58.00
2018-04-02T06:59:01.293Z,56.70
2018-04-02T07:01:29.343Z,56.00
2018-04-02T07:03:56.933Z,54.70
2018-04-02T07:06:24.506Z,55.30
2018-04-02T07:08:52.105Z,54.20
2018-04-02T07:11:19.675Z,55.00
2018-04-02T07:13:47.270Z,55.50
2018-04-02T07:16:14.837Z,53.70
2018-04-02T07:18:42.453Z,55.80
2018-04-02T07:21:10.022Z,52.10
2018-04-02T07:23:37.611Z,50.60
2018-04-02T07:26:05.185Z,51.50
2018-04-02T07:28:33.546Z,52.30
2018-04-02T07:31:01.122Z,52.30
2018-04-02T07:33:29.490Z,49.90
2018-04-02T07:35:58.001Z,50.10
2018-04-02T07:38:25.593Z,48.80
2018-04-02T07:40:53.167Z,47.70
2018-04-02T07:43:20.742Z,47.70
2018-04-02T07:45:48.341Z,45.60
2018-04-02T07:48:15.925Z,43.80
2018-04-02T07:50:43.523Z,44.50
2018-04-02T07:53:11.088Z,45.10
2018-04-02T07:55:38.683Z,46.80
2018-04-02T07:58:06.256Z,43.30
2018-04-02T08:00:33.851Z,45.60
2018-04-02T08:03:01.426Z,42.70
2018-04-02T08:05:29.025Z,43.30
2018-04-02T08:07:56.600Z,40.40
2018-04-02T08:10:24.189Z,41.60
2018-04-02T08:12:52.446Z,41.50
2018-04-02T08:15:20.037Z,43.80
2018-04-02T08:17:47.612Z,42.90
2018-04-02T08:20:15.210Z,41.00
2018-04-02T08:22:42.810Z,40.60
2018-04-02T08:25:10.397Z,44.20
2018-04-02T08:27:37.968Z,39.60
2018-04-02T08:30:05.564Z,40.80
2018-04-02T08:32:33.205Z,41.30
2018-04-02T08:35:01.525Z,41.50
2018-04-02T08:37:29.110Z,41.20
2018-04-02T08:39:57.475Z,42.50
2018-04-02T08:42:25.041Z,42.60
2018-04-02T08:44:52.649Z,38.30
2018-04-02T08:47:20.221Z,39.70
2018-04-02T08:49:47.814Z,37.90
2018-04-02T08:52:16.148Z,39.50
2018-04-02T08:54:44.620Z,39.70
2018-04-02T08:57:12.189Z,33.80
2018-04-02T08:59:39.758Z,33.60
2018-04-02T09:02:07.367Z,36.00
2018-04-02T09:04:34.933Z,35.50
2018-04-02T09:07:02.529Z,39.00
2018-04-02T09:09:30.106Z,35.40
2018-04-02T09:11:57.701Z,34.20
2018-04-02T09:14:25.273Z,36.60
2018-04-02T09:16:52.861Z,37.00
2018-04-02T09:19:20.432Z,31.30
2018-04-02T09:21:48.027Z,35.30
2018-04-02T09:24:15.597Z,26.10
2018-04-02T09:26:43.198Z,32.20
2018-04-02T09:29:10.766Z,34.20
2018-04-02T09:31:38.360Z,37.20
2018-04-02T09:34:06.706Z,30.00
2018-04-02T09:36:34.297Z,29.70
2018-04-02T09:39:01.869Z,35.60
2018-04-02T09:41:29.466Z,34.70
2018-04-02T09:43:57.045Z,36.40
2018-04-02T09:46:24.641Z,33.60
2018-04-02T09:48:53.003Z,30.00
2018-04-02T09:51:20.607Z,29.80
2018-04-02T09:53:48.173Z,29.50
2018-04-02T09:56:15.766Z,33.10
2018-04-02T09:58:43.337Z,33.70
2018-04-02T10:01:11.862Z,33.70
2018-04-02T10:03:39.437Z,32.20
2018-04-02T10:06:07.030Z,31.20
2018-04-02T10:08:34.599Z,34.60
2018-04-02T10:11:02.193Z,34.40
2018-04-02T10:13:29.764Z,37.90
2018-04-02T10:15:57.335Z,37.00
2018-04-02T10:18:24.936Z,32.70
2018-04-02T10:20:53.264Z,29.60
2018-04-02T10:23:20.848Z,29.80
2018-04-02T10:25:49.930Z,34.70
2018-04-02T10:28:17.577Z,35.30
2018-04-02T10:30:45.184Z,33.00
2018-04-02T10:33:12.770Z,35.70
2018-04-02T10:35:40.342Z,33.60
2018-04-02T10:38:08.141Z,35.40
2018-04-02T10:40:35.714Z,36.40
2018-04-02T10:43:03.326Z,37.10
2018-04-02T10:45:30.897Z,33.70
2018-04-02T10:47:58.499Z,33.90
2018-04-02T10:50:26.076Z,30.30
2018-04-02T10:52:54.442Z,33.40
2018-04-02T10:55:22.777Z,31.50
2018-04-02T10:57:50.631Z,31.60
2018-04-02T11:00:18.204Z,32.80
2018-04-02T11:02:45.797Z,32.20
2018-04-02T11:05:13.384Z,33.70
2018-04-02T11:07:40.972Z,33.00
2018-04-02T11:10:08.538Z,30.50
2018-04-02T11:12:36.130Z,32.00
2018-04-02T11:15:03.719Z,32.50
2018-04-02T11:17:31.321Z,33.50
2018-04-02T11:19:58.921Z,30.80
2018-04-02T11:22:27.270Z,32.40
2018-04-02T11:24:54.857Z,32.20
2018-04-02T11:27:22.441Z,34.00
2018-04-02T11:29:50.053Z,35.40
2018-04-02T11:32:17.627Z,33.90
2018-04-02T11:34:45.223Z,34.70
2018-04-02T11:37:12.790Z,34.60
2018-04-02T11:39:40.382Z,37.60
2018-04-02T11:42:07.961Z,34.80
2018-04-02T11:44:35.553Z,38.30
2018-04-02T11:47:03.131Z,35.70
2018-04-02T11:49:30.745Z,37.10
2018-04-02T11:51:58.321Z,36.30
2018-04-02T11:54:26.687Z,35.60
2018-04-02T11:56:55.030Z,38.10
2018-04-02T11:59:22.625Z,38.10
2018-04-02T12:01:50.967Z,37.70
2018-04-02T12:04:18.561Z,37.50
2018-04-02T12:06:46.136Z,37.60
2018-04-02T12:09:13.733Z,38.50
2018-04-02T12:11:42.086Z,36.70
2018-04-02T12:14:09.686Z,36.70
2018-04-02T12:16:37.261Z,38.20
2018-04-02T12:19:04.858Z,38.40
2018-04-02T12:21:32.449Z,37.70
2018-04-02T12:24:00.066Z,35.80
2018-04-02T12:26:27.650Z,38.00
2018-04-02T12:28:55.265Z,36.70
2018-04-02T12:31:22.833Z,37.60
2018-04-02T12:33:51.195Z,38.40
2018-04-02T12:36:18.766Z,38.50
2018-04-02T12:38:47.148Z,38.70
2018-04-02T12:41:15.490Z,35.60
2018-04-02T12:43:43.058Z,35.60
2018-04-02T12:46:10.648Z,38.50
2018-04-02T12:48:38.981Z,37.20
2018-04-02T12:51:06.587Z,37.20
2018-04-02T12:53:34.205Z,38.90
2018-04-02T12:56:01.793Z,36.30
2018-04-02T12:58:29.365Z,38.20
2018-04-02T13:00:57.726Z,40.10
2018-04-02T13:03:25.299Z,40.10
2018-04-02T13:05:53.658Z,39.20
2018-04-02T13:08:21.225Z,39.20
2018-04-02T13:10:49.651Z,36.50
2018-04-02T13:13:17.214Z,36.40
2018-04-02T13:15:44.863Z,36.50
2018-04-02T13:18:12.399Z,39.00
2018-04-02T13:20:39.994Z,38.10
2018-04-02T13:23:07.555Z,35.40
2018-04-02T13:25:35.149Z,36.80
2018-04-02T13:28:03.491Z,39.90
2018-04-02T13:30:31.078Z,39.80
2018-04-02T13:32:58.654Z,39.60
2018-04-02T13:35:26.248Z,39.10
2018-04-02T13:37:53.816Z,37.40
2018-04-02T13:40:21.422Z,40.30
2018-04-02T13:42:48.998Z,39.80
2018-04-02T13:45:16.593Z,36.70
2018-04-02T13:47:44.164Z,39.60
2018-04-02T13:50:11.766Z,39.80
2018-04-02T13:52:39.341Z,39.60
2018-04-02T13:55:07.706Z,39.00
2018-04-02T13:57:35.302Z,39.10
2018-04-02T14:00:02.869Z,41.20
2018-04-02T14:02:30.485Z,39.10
2018-04-02T14:04:58.071Z,40.60
2018-04-02T14:07:25.666Z,41.40
2018-04-02T14:09:53.290Z,40.40
2018-04-02T14:12:20.881Z,39.10
2018-04-02T14:14:48.453Z,41.00
2018-04-02T14:17:16.045Z,41.00
2018-04-02T14:19:44.386Z,40.90
2018-04-02T14:22:11.977Z,40.90
2018-04-02T14:24:39.561Z,39.50
2018-04-02T14:27:07.157Z,37.80
2018-04-02T14:29:34.723Z,40.30
2018-04-02T14:32:02.317Z,40.80
2018-04-02T14:34:30.653Z,39.50
2018-04-02T14:36:58.250Z,39.30
2018-04-02T14:39:26.594Z,40.20
2018-04-02T14:41:54.186Z,40.30
2018-04-02T14:44:21.760Z,40.50
2018-04-02T14:46:50.128Z,40.30
2018-04-02T14:49:18.474Z,40.80
2018-04-02T14:51:46.074Z,40.90
2018-04-02T14:54:13.641Z,40.80
2018-04-02T14:56:42.938Z,41.60
2018-04-02T14:59:10.515Z,41.50
2018-04-02T15:01:38.110Z,42.30
2018-04-02T15:04:05.707Z,40.00
2018-04-02T15:06:34.082Z,40.80
2018-04-02T15:09:02.426Z,39.80
2018-04-02T15:11:30.006Z,39.80
2018-04-02T15:13:57.607Z,41.70
2018-04-02T15:16:25.193Z,41.10
2018-04-02T15:18:52.810Z,40.60
2018-04-02T15:21:20.382Z,41.40
2018-04-02T15:23:47.970Z,41.70
2018-04-02T15:26:15.541Z,42.50
2018-04-02T15:28:43.141Z,41.70
2018-04-02T15:31:10.723Z,41.10
2018-04-02T15:33:38.319Z,41.90
2018-04-02T15:36:05.889Z,42.60
2018-04-02T15:38:33.485Z,41.90
2018-04-02T15:41:01.066Z,42.90
2018-04-02T15:43:28.668Z,43.30
2018-04-02T15:45:57.026Z,42.70
2018-04-02T15:48:24.617Z,42.70
2018-04-02T15:50:52.218Z,43.70
2018-04-02T15:53:19.817Z,42.60
2018-04-02T15:55:47.402Z,42.70
2018-04-02T15:58:14.998Z,42.70
2018-04-02T16:00:42.573Z,42.40
2018-04-02T16:03:10.200Z,42.80
2018-04-02T16:05:37.778Z,43.30
2018-04-02T16:08:05.383Z,43.70
2018-04-02T16:10:32.966Z,43.40
2018-04-02T16:13:00.542Z,43.80
2018-04-02T16:15:29.794Z,45.40
2018-04-02T16:17:57.358Z,44.80
2018-04-02T16:20:24.952Z,44.60
2018-04-02T16:22:52.530Z,44.80
2018-04-02T16:25:20.133Z,45.10
2018-04-02T16:27:47.717Z,45.10
2018-04-02T16:30:15.317Z,44.60
2018-04-02T16:32:42.927Z,44.50
2018-04-02T16:35:10.526Z,44.10
2018-04-02T16:37:38.105Z,45.10
2018-04-02T16:40:05.739Z,45.00
2018-04-02T16:42:33.316Z,44.90
2018-04-02T16:45:01.673Z,45.40
2018-04-02T16:47:29.245Z,45.00
2018-04-02T16:49:56.845Z,47.10
2018-04-02T16:52:24.423Z,46.60
2018-04-02T16:54:52.020Z,47.20
2018-04-02T16:57:19.596Z,48.80
2018-04-02T16:59:47.958Z,51.20
2018-04-02T17:02:15.529Z,51.00
2018-04-02T17:04:43.124Z,50.10
2018-04-02T17:07:11.470Z,53.00
2018-04-02T17:09:39.117Z,53.00
2018-04-02T17:12:06.878Z,52.40
2018-04-02T17:14:39.969Z,52.70
2018-04-02T17:17:08.384Z,53.60
2018-04-02T17:19:35.981Z,53.10
2018-04-02T17:22:03.566Z,52.10
2018-04-02T17:24:31.141Z,53.90
2018-04-02T17:26:59.509Z,52.80
2018-04-02T17:29:27.086Z,52.80
2018-04-02T17:31:54.670Z,55.60
2018-04-02T17:34:22.243Z,54.10
2018-04-02T17:36:49.837Z,54.30
2018-04-02T17:39:17.410Z,53.30
2018-04-02T17:41:45.003Z,53.60
2018-04-02T17:44:12.575Z,54.00
2018-04-02T17:46:40.177Z,53.90
2018-04-02T17:49:07.749Z,56.60
2018-04-02T17:51:35.450Z,56.70
2018-04-02T17:54:03.021Z,53.50
2018-04-02T17:56:30.630Z,55.00
2018-04-02T17:58:58.206Z,53.70
2018-04-02T18:01:25.814Z,54.40
2018-04-02T18:03:53.387Z,54.30
2018-04-02T18:06:20.985Z,53.60
2018-04-02T18:08:48.578Z,51.80
2018-04-02T18:11:16.173Z,51.40
2018-04-02T18:13:43.746Z,51.80
2018-04-02T18:16:11.350Z,50.90
2018-04-02T18:18:38.920Z,51.50
2018-04-02T18:21:06.721Z,53.40
2018-04-02T18:23:34.283Z,53.40
2018-04-02T18:26:01.930Z,53.10
2018-04-02T18:28:29.518Z,54.20
2018-04-02T18:30:57.127Z,53.00
2018-04-02T18:33:24.722Z,52.70
2018-04-02T18:35:52.452Z,53.50
2018-04-02T18:38:20.018Z,53.90
2018-04-02T18:40:48.320Z,56.20
2018-04-02T18:43:16.631Z,56.10
2018-04-02T18:45:44.756Z,55.40
2018-04-02T18:48:12.782Z,54.90
2018-04-02T18:50:40.417Z,54.60
2018-04-02T18:53:08.008Z,54.50
2018-04-02T18:55:37.062Z,54.10
2018-04-02T18:58:04.654Z,54.10
2018-04-02T19:00:32.241Z,53.80
2018-04-02T19:02:59.833Z,54.30
2018-04-02T19:05:27.402Z,56.10
2018-04-02T19:07:55.236Z,56.10
2018-04-02T19:10:22.812Z,55.90
2018-04-02T19:12:50.411Z,54.80
2018-04-02T19:15:18.752Z,56.20
2018-04-02T19:17:46.355Z,56.30
2018-04-02T19:20:13.973Z,56.00
2018-04-02T19:22:41.535Z,55.50
2018-04-02T19:25:09.154Z,54.90
2018-04-02T19:27:36.751Z,55.70
2018-04-02T19:30:04.366Z,53.80
2018-04-02T19:32:31.961Z,56.90
2018-04-02T19:34:59.541Z,55.20
2018-04-02T19:37:27.229Z,54.20
2018-04-02T19:39:54.751Z,55.00
2018-04-02T19:42:22.345Z,54.40
2018-04-02T19:44:50.673Z,57.40
2018-04-02T19:47:18.277Z,57.40
2018-04-02T19:49:45.850Z,57.30
2018-04-02T19:52:13.427Z,54.50
2018-04-02T19:54:41.040Z,55.60
2018-04-02T19:57:08.621Z,55.90
2018-04-02T19:59:36.983Z,55.00
2018-04-02T20:02:04.558Z,55.00
2018-04-02T20:04:32.151Z,55.10
2018-04-02T20:07:00.621Z,56.30
2018-04-02T20:09:28.220Z,57.20
2018-04-02T20:11:56.566Z,56.80
2018-04-02T20:14:24.166Z,57.30
2018-04-02T20:16:51.742Z,57.40
2018-04-02T20:19:20.116Z,55.10
2018-04-02T20:21:47.690Z,55.00
2018-04-02T20:24:15.296Z,56.80
2018-04-02T20:26:42.865Z,55.30
2018-04-02T20:29:11.226Z,56.00
2018-04-02T20:31:38.793Z,55.90
2018-04-02T20:34:06.396Z,55.80
2018-04-02T20:36:33.972Z,55.40
2018-04-02T20:39:01.591Z,56.80
2018-04-02T20:41:29.202Z,57.60
2018-04-02T20:43:56.797Z,56.40
2018-04-02T20:46:24.373Z,56.60
2018-04-02T20:48:51.970Z,57.90
2018-04-02T20:51:19.536Z,55.90
2018-04-02T20:53:47.135Z,55.00
2018-04-02T20:56:14.721Z,55.80
2018-04-02T20:58:42.297Z,55.80
2018-04-02T21:01:09.894Z,54.70
2018-04-02T21:03:37.469Z,54.90
2018-04-02T21:06:05.073Z,55.70
2018-04-02T21:08:33.406Z,56.40
2018-04-02T21:11:00.997Z,56.20
2018-04-02T21:13:28.565Z,56.50
2018-04-02T21:15:56.926Z,55.80
2018-04-02T21:18:24.497Z,55.70
2018-04-02T21:20:52.852Z,55.50
2018-04-02T21:23:20.413Z,55.40
2018-04-02T21:25:48.007Z,57.90
2018-04-02T21:28:15.586Z,55.70
2018-04-02T21:30:43.183Z,56.30
2018-04-02T21:33:10.758Z,58.00
2018-04-02T21:35:38.351Z,57.10
2018-04-02T21:38:05.925Z,56.90
2018-04-02T21:40:33.542Z,58.30
2018-04-02T21:43:01.128Z,56.40
2018-04-02T21:45:28.727Z,58.20
2018-04-02T21:47:56.355Z,56.10
2018-04-02T21:50:23.952Z,56.20
2018-04-02T21:52:51.523Z,58.20
2018-04-02T21:55:19.114Z,59.10
2018-04-02T21:57:47.442Z,56.60
2018-04-02T22:00:15.043Z,56.50
2018-04-02T22:02:42.610Z,57.20
2018-04-02T22:05:10.207Z,57.50
2018-04-02T22:07:37.784Z,55.60
2018-04-02T22:10:06.153Z,57.90
2018-04-02T22:12:33.717Z,57.70
2018-04-02T22:15:01.291Z,56.70
2018-04-02T22:17:28.886Z,58.00
2018-04-02T22:19:56.451Z,55.70
2018-04-02T22:22:24.042Z,57.30
2018-04-02T22:24:51.605Z,58.40
2018-04-02T22:27:19.198Z,58.50
2018-04-02T22:29:46.765Z,58.90
2018-04-02T22:32:14.357Z,59.00
2018-04-02T22:34:41.934Z,57.70
2018-04-02T22:37:09.526Z,57.20
2018-04-02T22:39:37.106Z,57.90
2018-04-02T22:42:04.703Z,60.10
2018-04-02T22:44:33.108Z,59.20
2018-04-02T22:47:00.706Z,56.30
2018-04-02T22:49:28.278Z,58.30
2018-04-02T22:51:55.876Z,58.90
2018-04-02T22:54:23.453Z,57.90
2018-04-02T22:56:51.049Z,58.60
2018-04-02T22:59:19.390Z,55.70
2018-04-02T23:01:46.989Z,55.60
2018-04-02T23:04:14.566Z,56.70
2018-04-02T23:06:42.162Z,59.40
2018-04-02T23:09:09.729Z,60.20
2018-04-02T23:11:37.318Z,59.20
2018-04-02T23:14:05.645Z,59.30
2018-04-02T23:16:33.244Z,59.20
2018-04-02T23:19:00.834Z,59.90
2018-04-02T23:21:28.421Z,56.80
2018-04-02T23:23:55.988Z,57.90
2018-04-02T23:26:23.553Z,61.40
2018-04-02T23:28:51.145Z,62.00
2018-04-02T23:31:18.719Z,60.00
2018-04-02T23:33:46.321Z,61.10
2018-04-02T23:36:13.893Z,58.40
2018-04-02T23:38:41.481Z,61.70
2018-04-02T23:41:09.811Z,62.60
2018-04-02T23:43:37.398Z,62.50
2018-04-02T23:46:05.040Z,58.10
2018-04-02T23:48:32.640Z,58.50
2018-04-02T23:51:00.222Z,57.80
2018-04-02T23:53:27.817Z,62.20
2018-04-02T23:55:55.393Z,57.60
2018-04-02T23:58:22.998Z,57.20
